Time;durP1;ratioP1;P1;durP2;ratioP2;P2;SDS_P1;SDS_P2;PMS_P1;PMS_P2;Temp;Humidity;BMP_temperature;BMP_pressure;BME280_temperature;BME280_humidity;BME280_pressure;Samples;Min_cycle;Max_cycle;Signal;HPM_P1;HPM_P2
2022/09/09 00:01:33;;;;;;;3.55;1.70;;;;;;;-143.48;73.91;77772.22;5073368;28;20333;-41
2022/09/09 00:04:14;;;;;;;2.65;1.60;;;;;;;-143.48;74.10;77790.06;5067425;28;20055;-41
2022/09/09 00:06:50;;;;;;;4.75;1.65;;;;;;;-143.48;74.26;77786.13;5073104;28;20027;-41
2022/09/09 00:09:18;;;;;;;5.72;1.77;;;;;;;-143.48;74.72;77794.03;5073462;28;20029;-41
2022/09/09 00:12:03;;;;;;;3.20;1.65;;;;;;;-143.48;75.03;77798.00;5073524;28;20383;-40
2022/09/09 00:14:53;;;;;;;3.90;1.67;;;;;;;-143.48;75.47;77796.03;5073547;28;20020;-41
2022/09/09 00:17:28;;;;;;;4.53;1.73;;;;;;;-143.48;74.93;77800.00;5073460;28;20462;-41
2022/09/09 00:20:16;;;;;;;2.80;1.60;;;;;;;-143.48;75.64;77809.91;5073934;28;20528;-40
2022/09/09 00:22:49;;;;;;;3.58;1.92;;;;;;;-143.48;75.57;77817.84;5073230;28;20383;-40
2022/09/09 00:25:23;;;;;;;5.38;1.70;;;;;;;-143.48;76.52;77800.00;5056561;28;20021;-41
2022/09/09 00:27:50;;;;;;;4.18;2.10;;;;;;;-143.48;75.79;77813.88;5073502;28;20036;-40
2022/09/09 00:30:31;;;;;;;5.78;2.20;;;;;;;-143.48;75.97;77811.88;5072191;28;20017;-41
2022/09/09 00:33:02;;;;;;;4.85;1.92;;;;;;;-143.48;76.61;77805.94;5073601;28;20069;-40
2022/09/09 00:35:39;;;;;;;3.70;1.85;;;;;;;-143.48;76.57;77827.75;5073054;28;20021;-41
2022/09/09 00:38:15;;;;;;;5.05;2.20;;;;;;;-143.48;77.56;77829.75;5073037;28;20028;-41
2022/09/09 00:40:52;;;;;;;3.47;1.90;;;;;;;-143.48;77.01;77825.78;5055322;28;20394;-40
2022/09/09 00:43:29;;;;;;;4.30;2.00;;;;;;;-143.48;76.91;77803.97;5073327;28;20031;-42
2022/09/09 00:46:03;;;;;;;6.03;2.10;;;;;;;-143.48;77.12;77823.78;5072918;28;20020;-41
2022/09/09 00:48:47;;;;;;;4.40;2.15;;;;;;;-143.48;76.99;77809.91;5072953;28;20378;-41
2022/09/09 00:51:30;;;;;;;3.22;2.03;;;;;;;-143.48;76.72;77813.88;5073341;28;20032;-41
2022/09/09 00:54:18;;;;;;;3.83;2.20;;;;;;;-143.48;77.12;77827.75;5073079;28;20056;-41
2022/09/09 00:56:53;;;;;;;5.10;2.20;;;;;;;-143.48;77.13;77827.75;5073284;28;20028;-41
2022/09/09 00:59:40;;;;;;;7.03;2.65;;;;;;;-143.48;77.85;77855.50;5054869;28;20078;-41
2022/09/09 01:02:37;;;;;;;5.07;2.22;;;;;;;-143.48;78.96;77851.56;5054776;28;20025;-41
2022/09/09 01:05:14;;;;;;;5.75;2.75;;;;;;;-143.48;78.92;77881.28;5072970;28;20089;-41
2022/09/09 01:07:44;;;;;;;4.00;2.20;;;;;;;-143.48;78.78;77863.44;5072803;28;20093;-41
2022/09/09 01:10:26;;;;;;;7.63;2.60;;;;;;;-143.48;79.54;77867.41;5072739;28;20040;-42
2022/09/09 01:12:52;;;;;;;4.97;2.85;;;;;;;-143.48;79.40;77877.31;5073180;28;20036;-41
2022/09/09 01:15:30;;;;;;;8.43;3.03;;;;;;;-143.48;79.69;77871.38;5072958;28;20020;-44
2022/09/09 01:18:07;;;;;;;4.72;2.70;;;;;;;-143.48;79.61;77857.50;5074394;28;20029;-41
2022/09/09 01:21:09;;;;;;;4.07;2.50;;;;;;;-143.48;78.72;77863.44;5076232;28;20031;-43
2022/09/09 01:23:42;;;;;;;8.60;3.42;;;;;;;-143.48;78.59;77857.50;5076136;28;20025;-41
2022/09/09 01:26:23;;;;;;;6.35;2.80;;;;;;;-143.48;78.50;77867.41;5076425;28;20519;-40
2022/09/09 01:28:52;;;;;;;6.93;3.10;;;;;;;-143.48;79.13;77885.25;5076397;28;20368;-41
2022/09/09 01:31:22;;;;;;;8.18;2.90;;;;;;;-143.48;79.82;77891.22;5076206;28;20067;-41
2022/09/09 01:33:48;;;;;;;7.38;3.30;;;;;;;-143.48;80.05;77897.16;5059038;28;20070;-41
2022/09/09 01:36:24;;;;;;;8.02;3.00;;;;;;;-143.48;80.22;77899.13;5075943;28;20471;-41
2022/09/09 01:38:49;;;;;;;5.93;3.20;;;;;;;-143.48;80.44;77897.16;5075947;28;20024;-40
2022/09/09 01:41:15;;;;;;;5.20;3.03;;;;;;;-143.48;80.41;77895.19;5076173;28;20027;-41
2022/09/09 01:43:40;;;;;;;4.82;2.88;;;;;;;-143.48;80.24;77889.22;5076093;28;20016;-41
2022/09/09 01:46:05;;;;;;;5.57;3.10;;;;;;;-143.48;79.66;77885.25;5075779;28;20059;-41
2022/09/09 01:48:32;;;;;;;6.93;3.40;;;;;;;-143.48;79.83;77879.31;5075610;28;20074;-41
2022/09/09 01:50:58;;;;;;;7.68;3.58;;;;;;;-143.48;80.23;77905.09;5075886;28;20038;-41
2022/09/09 01:53:23;;;;;;;6.32;3.40;;;;;;;-143.48;81.18;77926.91;5057650;28;20020;-41
2022/09/09 01:56:13;;;;;;;8.07;3.60;;;;;;;-143.48;81.43;77930.88;5075805;28;20165;-41
2022/09/09 01:59:03;;;;;;;10.68;3.53;;;;;;;-143.48;80.97;77895.19;5075882;28;20024;-42
2022/09/09 02:01:49;;;;;;;6.50;3.17;;;;;;;-143.48;79.87;77893.19;5076067;28;20016;-41
2022/09/09 02:04:41;;;;;;;8.63;3.40;;;;;;;-143.48;79.80;77893.19;5075486;28;20053;-42
2022/09/09 02:07:30;;;;;;;8.45;3.67;;;;;;;-143.48;79.74;77903.09;5075656;28;20031;-41
2022/09/09 02:10:11;;;;;;;7.80;3.22;;;;;;;-143.48;80.52;77909.06;5075217;28;20109;-40
2022/09/09 02:12:42;;;;;;;7.97;3.83;;;;;;;-143.48;80.58;77913.03;5075594;28;20028;-42
2022/09/09 02:15:19;;;;;;;8.07;3.78;;;;;;;-143.48;80.46;77917.00;5075327;28;20032;-41
2022/09/09 02:17:46;;;;;;;8.30;4.05;;;;;;;-143.48;80.68;77918.97;5075414;28;20059;-41
2022/09/09 02:20:14;;;;;;;10.40;4.40;;;;;;;-143.48;80.82;77918.97;5075477;28;20020;-41
2022/09/09 02:22:43;;;;;;;7.15;4.20;;;;;;;-143.48;80.93;77932.84;5075383;28;20074;-41
2022/09/09 02:25:12;;;;;;;7.55;3.90;;;;;;;-143.48;81.48;77918.97;5075288;28;20024;-41
2022/09/09 02:27:40;;;;;;;7.00;3.80;;;;;;;-143.48;81.07;77920.94;5075021;28;20052;-41
2022/09/09 02:30:06;;;;;;;9.52;4.22;;;;;;;-143.48;80.68;77907.06;5075144;28;20538;-41
2022/09/09 02:32:35;;;;;;;6.40;4.20;;;;;;;-143.48;80.63;77918.97;5075143;28;20099;-40
2022/09/09 02:35:10;;;;;;;8.02;4.10;;;;;;;-143.48;80.68;77907.06;5075020;28;20030;-41
2022/09/09 02:37:38;;;;;;;8.45;4.38;;;;;;;-143.48;80.92;77932.84;5074979;28;20063;-41
2022/09/09 02:40:05;;;;;;;9.95;4.28;;;;;;;-143.48;81.49;77924.91;5074963;28;20020;-41
2022/09/09 02:42:30;;;;;;;10.52;4.63;;;;;;;-143.48;81.18;77918.97;5074940;28;20066;-41
2022/09/09 02:44:56;;;;;;;7.13;4.13;;;;;;;-143.48;80.75;77918.97;5056757;28;20028;-41
2022/09/09 02:47:28;;;;;;;13.18;4.60;;;;;;;-143.48;81.69;77934.84;5074581;28;20510;-41
2022/09/09 02:50:02;;;;;;;9.75;4.90;;;;;;;-143.48;81.46;77946.72;5074729;28;20435;-41
2022/09/09 02:52:38;;;;;;;7.93;4.60;;;;;;;-143.48;81.81;77932.84;5074488;28;20020;-42
2022/09/09 02:55:11;;;;;;;8.15;4.40;;;;;;;-143.48;81.22;77924.91;5074492;28;20059;-40
2022/09/09 02:57:38;;;;;;;11.73;4.82;;;;;;;-143.48;80.84;77920.94;5074457;28;20021;-41
2022/09/09 03:00:04;;;;;;;9.85;4.97;;;;;;;-143.48;80.53;77915.00;5074898;28;20035;-41
2022/09/09 03:02:30;;;;;;;7.60;4.40;;;;;;;-143.48;80.41;77917.00;5074144;28;20028;-40
2022/09/09 03:04:55;;;;;;;7.68;4.30;;;;;;;-143.48;80.37;77911.03;5074528;28;20032;-40
2022/09/09 03:07:20;;;;;;;6.88;3.95;;;;;;;-143.48;79.92;77911.03;5074126;28;20035;-41
2022/09/09 03:09:46;;;;;;;7.85;4.38;;;;;;;-143.48;79.75;77911.03;5074470;28;20032;-41
2022/09/09 03:12:11;;;;;;;8.43;4.57;;;;;;;-143.48;80.37;77917.00;5074062;28;20037;-41
2022/09/09 03:14:38;;;;;;;7.90;4.20;;;;;;;-143.48;80.13;77895.19;5074032;28;20025;-41
2022/09/09 03:17:04;;;;;;;8.75;4.57;;;;;;;-143.48;78.89;77879.31;5073958;28;20024;-41
2022/09/09 03:19:30;;;;;;;12.75;4.70;;;;;;;-143.48;79.60;77905.09;5073993;28;20493;-41
2022/09/09 03:21:55;;;;;;;6.93;4.00;;;;;;;-143.48;79.85;77899.13;5073953;28;20021;-41
2022/09/09 03:24:22;;;;;;;10.30;4.45;;;;;;;-143.48;79.09;77893.19;5073812;28;20024;-40
2022/09/09 03:26:47;;;;;;;5.50;4.47;;;;;;;-143.48;80.05;77905.09;5074086;28;20047;-41
2022/09/09 03:29:12;;;;;;;9.80;4.18;;;;;;;-143.48;80.24;77907.06;5074080;28;20025;-40
2022/09/09 03:31:38;;;;;;;7.82;3.53;;;;;;;-143.48;79.52;77895.19;5073953;28;20422;-42
2022/09/09 03:34:04;;;;;;;9.20;4.28;;;;;;;-143.48;79.44;77893.19;5074011;28;20032;-40
2022/09/09 03:36:30;;;;;;;7.97;3.80;;;;;;;-143.48;79.20;77915.00;5073543;28;20360;-42
2022/09/09 03:38:55;;;;;;;6.38;3.95;;;;;;;-143.48;80.23;77926.91;5073623;28;20158;-41
2022/09/09 03:41:23;;;;;;;9.65;4.40;;;;;;;-143.48;79.55;77909.06;5073470;28;20020;-40
2022/09/09 03:43:53;;;;;;;6.97;3.90;;;;;;;-143.48;80.14;77934.84;5073859;28;20032;-41
2022/09/09 03:46:19;;;;;;;8.27;4.10;;;;;;;-143.48;80.40;77917.00;5073537;28;20028;-42
2022/09/09 03:48:44;;;;;;;9.02;4.13;;;;;;;-143.48;80.25;77924.91;5073554;28;20386;-41
2022/09/09 03:51:10;;;;;;;7.70;3.85;;;;;;;-143.48;80.60;77911.03;5073623;28;20099;-40
2022/09/09 03:53:38;;;;;;;8.43;4.28;;;;;;;-143.48;79.97;77911.03;5073735;28;20115;-41
2022/09/09 03:56:06;;;;;;;8.30;4.13;;;;;;;-143.48;79.85;77928.88;5073447;28;20024;-40
2022/09/09 03:58:33;;;;;;;7.45;4.45;;;;;;;-143.48;79.93;77918.97;5073686;28;20024;-42
2022/09/09 04:01:08;;;;;;;9.07;4.05;;;;;;;-143.48;79.77;77917.00;5073759;28;20473;-41
2022/09/09 04:03:33;;;;;;;7.47;4.00;;;;;;;-143.48;80.28;77948.72;5073639;28;20033;-41
2022/09/09 04:06:03;;;;;;;9.45;4.18;;;;;;;-143.48;80.97;77938.81;5073545;28;20039;-41
2022/09/09 04:08:31;;;;;;;7.53;4.00;;;;;;;-143.48;80.52;77942.78;5073537;28;20112;-41
2022/09/09 04:10:57;;;;;;;6.70;4.10;;;;;;;-143.48;80.19;77942.78;5073113;28;20044;-40
2022/09/09 04:13:23;;;;;;;6.95;4.05;;;;;;;-143.48;80.71;77948.72;5073274;28;20024;-41
2022/09/09 04:15:57;;;;;;;8.85;4.30;;;;;;;-143.48;80.34;77940.78;5073504;28;20033;-41
2022/09/09 04:18:23;;;;;;;6.38;3.92;;;;;;;-143.48;80.19;77936.81;5055222;28;20039;-41
2022/09/09 04:20:50;;;;;;;7.78;3.85;;;;;;;-143.48;80.02;77926.91;5073228;28;20028;-41
2022/09/09 04:23:16;;;;;;;10.70;3.83;;;;;;;-143.48;79.98;77930.88;5073189;28;20025;-41
2022/09/09 04:25:50;;;;;;;10.60;4.40;;;;;;;-143.48;80.40;77946.72;5073184;28;20036;-41
2022/09/09 04:28:17;;;;;;;10.02;4.07;;;;;;;-143.48;80.50;77940.78;5073125;28;20523;-41
2022/09/09 04:30:43;;;;;;;7.03;3.97;;;;;;;-143.48;80.80;77932.84;5073059;28;20141;-41
2022/09/09 04:33:09;;;;;;;8.35;4.10;;;;;;;-143.48;80.53;77940.78;5073076;28;20036;-40
2022/09/09 04:35:35;;;;;;;8.48;4.20;;;;;;;-143.48;80.93;77934.84;5073343;28;20035;-40
2022/09/09 04:38:02;;;;;;;8.35;4.15;;;;;;;-143.48;80.22;77924.91;5073319;28;20099;-40
2022/09/09 04:40:28;;;;;;;14.40;4.15;;;;;;;-143.48;80.19;77913.03;5073064;28;20025;-41
2022/09/09 04:42:53;;;;;;;10.82;4.00;;;;;;;-143.48;79.67;77903.09;5073209;28;20035;-40
2022/09/09 04:45:18;;;;;;;7.43;4.00;;;;;;;-143.48;79.83;77915.00;5073020;28;20455;-41
2022/09/09 04:47:43;;;;;;;6.82;3.72;;;;;;;-143.48;79.61;77918.97;5073213;28;20028;-40
2022/09/09 04:50:09;;;;;;;8.27;3.40;;;;;;;-143.48;80.43;77917.00;5072761;28;20123;-40
2022/09/09 04:52:35;;;;;;;6.78;3.63;;;;;;;-143.48;79.98;77905.09;5073768;28;20035;-40
2022/09/09 04:55:01;;;;;;;8.50;3.75;;;;;;;-143.48;79.84;77918.97;5076762;28;20524;-41
2022/09/09 04:57:26;;;;;;;8.90;3.63;;;;;;;-143.48;79.87;77901.13;5076906;28;20020;-40
2022/09/09 04:59:51;;;;;;;8.27;3.30;;;;;;;-143.48;79.87;77913.03;5076643;28;20444;-42
2022/09/09 05:02:17;;;;;;;7.32;3.80;;;;;;;-143.48;79.79;77901.13;5077086;28;20152;-40
2022/09/09 05:04:42;;;;;;;7.40;3.85;;;;;;;-143.48;79.82;77903.09;5077064;28;20516;-41
2022/09/09 05:07:07;;;;;;;6.80;3.60;;;;;;;-143.48;79.63;77907.06;5076820;28;20037;-41
2022/09/09 05:09:33;;;;;;;8.45;3.70;;;;;;;-143.48;80.17;77918.97;5058415;28;20107;-39
2022/09/09 05:11:58;;;;;;;7.32;3.67;;;;;;;-143.48;80.11;77920.94;5076696;28;20068;-40
2022/09/09 05:14:23;;;;;;;7.85;3.58;;;;;;;-143.48;80.89;77917.00;5076313;28;20029;-40
2022/09/09 05:16:49;;;;;;;8.20;4.05;;;;;;;-143.48;80.36;77911.03;5076600;28;20021;-41
2022/09/09 05:19:14;;;;;;;7.50;3.63;;;;;;;-143.48;80.19;77903.09;5077082;28;20031;-40
2022/09/09 05:21:41;;;;;;;7.38;3.65;;;;;;;-143.48;79.96;77903.09;5058295;28;20099;-40
2022/09/09 05:24:07;;;;;;;6.00;3.45;;;;;;;-143.48;80.06;77887.25;5076714;28;20036;-41
2022/09/09 05:26:32;;;;;;;9.63;3.58;;;;;;;-143.48;79.69;77893.19;5076180;28;20386;-41
2022/09/09 05:28:58;;;;;;;8.88;3.53;;;;;;;-143.48;79.66;77895.19;5076382;28;20021;-41
2022/09/09 05:31:27;;;;;;;9.50;3.30;;;;;;;-143.48;79.53;77895.19;5076322;28;20079;-40
2022/09/09 05:33:53;;;;;;;9.07;3.30;;;;;;;-143.48;79.61;77887.25;5058089;28;20041;-40
2022/09/09 05:36:20;;;;;;;6.57;3.67;;;;;;;-143.48;79.37;77883.28;5076032;28;20028;-41
2022/09/09 05:38:46;;;;;;;7.63;3.28;;;;;;;-143.48;80.14;77903.09;5075934;28;20051;-41
2022/09/09 05:41:12;;;;;;;12.63;3.92;;;;;;;-143.48;80.51;77911.03;5075994;28;20029;-41
2022/09/09 05:43:38;;;;;;;11.38;3.40;;;;;;;-143.48;80.77;77895.19;5075875;28;20036;-40
2022/09/09 05:46:08;;;;;;;7.75;3.67;;;;;;;-143.48;80.47;77885.25;5075850;28;20029;-41
2022/09/09 05:48:42;;;;;;;14.73;3.95;;;;;;;-143.48;80.23;77887.25;5076033;28;20137;-41
2022/09/09 05:51:13;;;;;;;11.88;3.80;;;;;;;-143.48;79.92;77873.38;5076189;28;20036;-41
2022/09/09 05:53:38;;;;;;;8.02;3.40;;;;;;;-143.48;79.90;77867.41;5075888;28;20134;-39
2022/09/09 05:56:06;;;;;;;12.27;3.28;;;;;;;-143.48;79.82;77875.34;5076197;28;20127;-41
2022/09/09 05:58:34;;;;;;;10.05;3.75;;;;;;;-143.48;79.47;77857.50;5075817;28;20031;-40
2022/09/09 06:01:14;;;;;;;10.73;3.72;;;;;;;-143.48;78.65;77859.47;5075757;28;20020;-41
2022/09/09 06:03:41;;;;;;;12.07;3.67;;;;;;;-143.48;78.48;77837.66;5075691;28;20024;-41
2022/09/09 06:06:09;;;;;;;7.85;3.25;;;;;;;-143.48;78.14;77837.66;5057384;28;20036;-42
2022/09/09 06:08:39;;;;;;;10.40;3.58;;;;;;;-143.48;78.67;77843.63;5075183;28;20074;-41
2022/09/09 06:11:16;;;;;;;9.50;3.58;;;;;;;-143.48;78.85;77853.53;5056735;28;20036;-41
2022/09/09 06:13:42;;;;;;;13.40;3.70;;;;;;;-143.48;79.27;77849.56;5075415;28;20040;-40
2022/09/09 06:16:12;;;;;;;11.73;3.28;;;;;;;-143.48;78.70;77829.75;5075027;28;20024;-40
2022/09/09 06:18:39;;;;;;;14.25;3.50;;;;;;;-143.48;78.44;77817.84;5075261;28;20475;-41
2022/09/09 06:21:06;;;;;;;10.13;3.28;;;;;;;-143.48;78.01;77825.78;5074857;28;20043;-41
2022/09/09 06:23:34;;;;;;;6.60;2.92;;;;;;;-143.48;78.29;77823.78;5075193;28;20036;-41
2022/09/09 06:26:10;;;;;;;9.23;3.03;;;;;;;-143.48;78.53;77825.78;5074939;28;20043;-39
2022/09/09 06:28:36;;;;;;;9.77;3.30;;;;;;;-143.48;78.35;77805.94;5075153;28;20531;-40
2022/09/09 06:31:11;;;;;;;8.30;3.17;;;;;;;-143.48;77.04;77766.28;5074758;28;20098;-40
2022/09/09 06:33:44;;;;;;;9.90;2.97;;;;;;;-143.48;75.70;77766.28;5056447;28;20024;-41
2022/09/09 06:36:17;;;;;;;9.30;2.78;;;;;;;-143.48;75.68;77740.50;5074340;28;20099;-41
2022/09/09 06:38:43;;;;;;;11.88;3.10;;;;;;;-143.48;74.62;77718.69;5074796;28;20036;-41
2022/09/09 06:41:10;;;;;;;6.82;2.63;;;;;;;-143.48;73.64;77702.84;5074694;28;20031;-42
2022/09/09 06:43:35;;;;;;;11.02;3.00;;;;;;;-143.48;74.17;77706.78;5075167;28;20035;-41
2022/09/09 06:46:02;;;;;;;13.55;3.00;;;;;;;-143.48;73.93;77716.72;5074622;28;20028;-40
2022/09/09 06:48:28;;;;;;;10.30;3.05;;;;;;;-143.48;72.61;77671.09;5074908;28;20047;-41
2022/09/09 06:51:14;;;;;;;15.32;2.97;;;;;;;-143.48;70.44;77599.72;5075028;28;20055;-40
2022/09/09 06:53:41;;;;;;;9.02;2.60;;;;;;;-143.48;70.97;77617.56;5074370;28;20034;-40
2022/09/09 06:56:10;;;;;;;9.63;2.25;;;;;;;-143.48;70.03;77613.59;5074420;28;20032;-41
2022/09/09 06:58:44;;;;;;;15.73;2.92;;;;;;;-143.48;71.16;77653.25;5074629;28;20040;-41
2022/09/09 07:01:12;;;;;;;6.85;2.28;;;;;;;-143.48;71.98;77665.16;5074572;28;20024;-41
2022/09/09 07:03:39;;;;;;;7.70;2.13;;;;;;;-143.48;72.48;77673.09;5073232;28;20093;-40
2022/09/09 07:06:05;;;;;;;8.00;2.25;;;;;;;-143.48;71.20;77641.38;5073399;28;20024;-41
2022/09/09 07:08:31;;;;;;;10.13;2.80;;;;;;;-143.48;72.05;77667.13;5073126;28;20028;-41
2022/09/09 07:11:06;;;;;;;9.55;2.53;;;;;;;-143.48;70.84;77611.63;5055484;28;20052;-42
2022/09/09 07:13:32;;;;;;;11.65;3.00;;;;;;;-143.48;61.98;77322.13;5074330;28;20490;-42
2022/09/09 07:16:08;;;;;;;12.68;2.78;;;;;;;-143.48;56.50;77072.31;5073096;28;20024;-42
2022/09/09 07:18:34;;;;;;;11.55;2.60;;;;;;;-143.48;61.11;77306.28;5073760;28;20047;-42
2022/09/09 07:21:00;;;;;;;9.68;2.10;;;;;;;-143.48;61.16;77383.59;5073935;28;20016;-42
2022/09/09 07:23:26;;;;;;;10.82;2.30;;;;;;;-143.48;64.63;77460.94;5074012;28;20432;-41
2022/09/09 07:25:52;;;;;;;9.00;2.55;;;;;;;-143.48;66.96;77544.19;5055733;28;20106;-42
2022/09/09 07:28:18;;;;;;;14.68;2.45;;;;;;;-143.48;67.07;77532.31;5074165;28;20028;-41
2022/09/09 07:30:43;;;;;;;9.60;2.40;;;;;;;-143.48;67.87;77548.16;5073817;28;20046;-41
2022/09/09 07:33:09;;;;;;;9.93;2.33;;;;;;;-143.48;66.78;77522.38;5073543;28;20348;-41
2022/09/09 07:35:36;;;;;;;12.48;2.65;;;;;;;-143.48;66.40;77504.53;5073799;28;20032;-41
2022/09/09 07:38:06;;;;;;;13.38;2.60;;;;;;;-143.48;66.12;77484.72;5073981;28;20032;-41
2022/09/09 07:40:33;;;;;;;7.65;2.40;;;;;;;-143.48;67.71;77568.00;5074108;28;20024;-42
2022/09/09 07:42:59;;;;;;;8.07;2.35;;;;;;;-143.48;67.15;77536.28;5073479;28;20466;-41
2022/09/09 07:45:24;;;;;;;8.30;2.67;;;;;;;-143.48;66.70;77536.28;5073743;28;20031;-42
2022/09/09 07:47:50;;;;;;;10.50;2.50;;;;;;;-143.48;68.20;77581.88;5073363;28;20433;-42
2022/09/09 07:50:15;;;;;;;7.00;2.42;;;;;;;-143.48;68.00;77579.91;5073216;28;20463;-42
2022/09/09 07:52:41;;;;;;;11.73;2.92;;;;;;;-143.48;69.25;77617.56;5073403;28;20052;-41
2022/09/09 07:55:06;;;;;;;12.55;2.70;;;;;;;-143.48;68.69;77577.91;5073295;28;20031;-42
2022/09/09 07:57:32;;;;;;;9.65;2.50;;;;;;;-143.48;66.95;77540.25;5073380;28;20021;-42
2022/09/09 07:59:57;;;;;;;14.57;2.92;;;;;;;-143.48;66.72;77520.41;5073742;28;20073;-40
2022/09/09 08:02:25;;;;;;;13.52;2.83;;;;;;;-143.48;65.87;77516.44;5072991;28;20028;-42
2022/09/09 08:04:51;;;;;;;11.27;2.58;;;;;;;-143.48;66.17;77520.41;5073851;28;20025;-42
2022/09/09 08:07:17;;;;;;;12.50;2.58;;;;;;;-143.48;66.17;77508.50;5073121;28;20023;-42
2022/09/09 08:09:43;;;;;;;10.88;2.90;;;;;;;-143.48;66.87;77552.13;5072718;28;20032;-42
2022/09/09 08:12:09;;;;;;;8.35;2.60;;;;;;;-143.48;66.90;77554.13;5073242;28;20024;-43
2022/09/09 08:14:34;;;;;;;9.95;2.80;;;;;;;-143.48;66.70;77554.13;5073690;28;20093;-40
2022/09/09 08:16:59;;;;;;;9.77;2.42;;;;;;;-143.48;67.79;77591.78;5072927;28;20104;-41
2022/09/09 08:19:25;;;;;;;9.90;2.50;;;;;;;-143.48;68.72;77589.81;5072872;28;20040;-40
2022/09/09 08:21:51;;;;;;;10.82;2.85;;;;;;;-143.48;66.84;77540.25;5073212;28;20019;-42
2022/09/09 08:24:19;;;;;;;11.43;2.50;;;;;;;-143.48;67.15;77577.91;5073065;28;20032;-42
2022/09/09 08:26:49;;;;;;;9.80;2.60;;;;;;;-143.48;68.32;77591.78;5074709;28;20024;-42
2022/09/09 08:29:15;;;;;;;13.18;3.00;;;;;;;-143.48;67.79;77564.03;5077340;28;20367;-43
2022/09/09 08:31:44;;;;;;;9.95;2.40;;;;;;;-143.48;66.82;77568.00;5077496;28;20387;-41
2022/09/09 08:34:10;;;;;;;8.98;2.20;;;;;;;-143.48;66.46;77577.91;5077316;28;20033;-40
2022/09/09 08:36:42;;;;;;;10.07;2.33;;;;;;;-143.48;66.25;77552.13;5076834;28;20070;-41
2022/09/09 08:39:08;;;;;;;10.70;2.30;;;;;;;-143.48;65.22;77524.38;5076978;28;20486;-42
2022/09/09 08:41:43;;;;;;;14.70;2.17;;;;;;;-143.48;65.58;77568.00;5077952;28;20074;-42
2022/09/09 08:44:31;;;;;;;8.98;2.50;;;;;;;-143.48;65.16;77566.00;5077219;28;20054;-41
2022/09/09 08:47:04;;;;;;;11.95;2.70;;;;;;;-143.48;65.65;77564.03;5059368;28;20024;-42
2022/09/09 08:49:57;;;;;;;10.32;2.70;;;;;;;-143.48;64.20;77512.47;5059583;28;20451;-43
2022/09/09 08:52:28;;;;;;;11.13;2.38;;;;;;;-143.48;63.53;77500.59;5076875;28;20095;-41
2022/09/09 08:54:58;;;;;;;11.48;2.28;;;;;;;-143.48;63.72;77518.44;5058676;28;20075;-41
2022/09/09 08:57:28;;;;;;;8.60;1.92;;;;;;;-143.48;64.46;77522.38;5076950;28;20020;-42
2022/09/09 08:59:56;;;;;;;12.18;2.65;;;;;;;-143.48;65.53;77566.00;5076563;28;20028;-42
2022/09/09 09:02:32;;;;;;;9.05;2.40;;;;;;;-143.48;65.29;77552.13;5076728;28;20028;-42
2022/09/09 09:05:23;;;;;;;9.70;2.58;;;;;;;-143.48;65.95;77558.09;5076580;28;20029;-41
2022/09/09 09:08:30;;;;;;;11.20;2.28;;;;;;;-143.48;65.64;77566.00;5076557;28;20017;-41
2022/09/09 09:11:00;;;;;;;9.85;2.63;;;;;;;-143.48;64.81;77558.09;5065108;28;20053;-40
2022/09/09 09:13:43;;;;;;;10.90;2.80;;;;;;;-143.48;64.90;77560.06;5076687;28;20107;-40
2022/09/09 09:16:23;;;;;;;;;;;;;;;-143.48;65.65;77571.97;5076595;28;20170;-33
2022/09/09 09:18:50;;;;;;;8.35;2.38;;;;;;;-143.48;65.71;77569.97;5076577;28;20003;-35
2022/09/09 09:21:27;;;;;;;11.95;2.40;;;;;;;-143.48;65.18;77552.13;5076412;28;20024;-37
2022/09/09 09:23:58;;;;;;;8.93;2.38;;;;;;;-143.48;65.33;77546.19;5076312;28;20035;-35
2022/09/09 09:26:30;;;;;;;8.48;2.30;;;;;;;-143.48;65.48;77571.97;5075937;28;20042;-34
2022/09/09 09:28:57;;;;;;;9.05;2.22;;;;;;;-143.48;65.61;77585.84;5075410;28;20032;-36
2022/09/09 09:31:23;;;;;;;10.05;2.40;;;;;;;-143.48;65.90;77579.91;5074865;28;20059;-38
2022/09/09 09:33:52;;;;;;;8.70;2.35;;;;;;;-143.48;65.67;77573.94;5075841;28;20115;-35
2022/09/09 09:36:18;;;;;;;9.65;2.42;;;;;;;-143.48;65.39;77564.03;5075286;28;20463;-36
2022/09/09 09:38:57;;;;;;;7.20;2.30;;;;;;;-143.48;65.05;77562.06;5074649;28;20103;-35
2022/09/09 09:41:30;;;;;;;10.10;2.30;;;;;;;-143.48;65.90;77573.94;5075754;28;20120;-36
2022/09/09 09:43:55;;;;;;;10.57;2.45;;;;;;;-143.48;66.96;77603.69;5075914;28;20111;-35
2022/09/09 09:46:23;;;;;;;11.45;2.58;;;;;;;-143.48;68.35;77617.56;5075715;28;20112;-37
2022/09/09 09:48:58;;;;;;;9.55;2.22;;;;;;;-143.48;68.19;77607.66;5076347;28;20021;-36
2022/09/09 09:51:24;;;;;;;6.50;2.10;;;;;;;-143.48;68.55;77611.63;5075809;28;20055;-35
2022/09/09 09:53:52;;;;;;;13.27;2.38;;;;;;;-143.48;69.01;77601.72;5076037;28;20027;-35
2022/09/09 09:56:28;;;;;;;13.75;2.42;;;;;;;-143.48;67.82;77579.91;5075940;28;20119;-37
2022/09/09 09:58:55;;;;;;;9.25;2.40;;;;;;;-143.48;67.98;77593.78;5074322;28;20034;-35
2022/09/09 10:01:29;;;;;;;10.23;2.42;;;;;;;-143.48;69.70;77575.94;5075311;28;20107;-36
2022/09/09 10:04:01;;;;;;;13.23;2.63;;;;;;;-143.48;69.28;77601.72;5075563;28;20494;-34
2022/09/09 10:06:36;;;;;;;9.43;2.30;;;;;;;-143.48;69.69;77605.66;5075568;28;20024;-36
2022/09/09 10:09:04;;;;;;;9.60;2.53;;;;;;;-143.48;69.78;77581.88;5074991;28;20039;-37
2022/09/09 10:11:52;;;;;;;11.77;2.45;;;;;;;-143.48;71.12;77619.56;5074786;28;20040;-36
2022/09/09 10:14:24;;;;;;;8.02;2.33;;;;;;;-143.48;71.66;77603.69;5074812;28;20109;-36
2022/09/09 10:17:09;;;;;;;10.82;2.22;;;;;;;-143.48;70.02;77579.91;5075057;28;20025;-37
2022/09/09 10:19:37;;;;;;;9.02;2.55;;;;;;;-143.48;68.03;77474.81;5073821;28;20029;-38
2022/09/09 10:22:26;;;;;;;11.10;2.40;;;;;;;-143.48;65.18;77468.84;5072856;28;20031;-38
2022/09/09 10:25:15;;;;;;;12.43;2.20;;;;;;;-143.48;66.72;77462.91;5055688;28;20357;-37
2022/09/09 10:28:05;;;;;;;8.45;2.20;;;;;;;-143.48;67.09;77506.53;5073557;28;20028;-37
2022/09/09 10:31:06;;;;;;;10.18;2.72;;;;;;;-143.48;68.07;77540.25;5074162;28;20031;-37
2022/09/09 10:33:49;;;;;;;12.30;2.55;;;;;;;-143.48;71.15;77568.00;5056130;28;20040;-38
2022/09/09 10:36:24;;;;;;;9.13;2.60;;;;;;;-143.48;73.75;77575.94;5074296;28;20636;-38
2022/09/09 10:38:57;;;;;;;9.98;2.85;;;;;;;-143.48;74.10;77577.91;5073421;28;20425;-36
2022/09/09 10:41:46;;;;;;;11.93;2.83;;;;;;;-143.48;75.51;77579.91;5074599;28;20020;-39
2022/09/09 10:44:29;;;;;;;9.25;2.70;;;;;;;-143.48;71.38;77520.41;5074795;28;20033;-36
2022/09/09 10:47:13;;;;;;;9.27;2.60;;;;;;;-143.48;66.74;77334.03;5074264;28;20024;-36
2022/09/09 10:50:13;;;;;;;12.93;2.60;;;;;;;-143.48;68.11;77387.56;5072739;28;20383;-36
2022/09/09 10:52:47;;;;;;;11.55;2.72;;;;;;;-143.48;65.90;77322.13;5074359;28;20406;-36
2022/09/09 10:55:25;;;;;;;10.38;2.25;;;;;;;-143.48;63.54;77223.00;5074923;28;20123;-36
2022/09/09 10:57:53;;;;;;;8.20;2.15;;;;;;;-143.48;63.69;77292.41;5074825;28;20069;-36
2022/09/09 11:00:20;;;;;;;12.13;2.38;;;;;;;-143.48;64.01;77298.34;5074139;28;20025;-38
2022/09/09 11:02:53;;;;;;;12.85;2.50;;;;;;;-143.48;65.13;77332.03;5056341;28;20035;-35
2022/09/09 11:05:29;;;;;;;11.30;2.45;;;;;;;-143.48;67.60;77409.38;5074554;28;20451;-36
2022/09/09 11:08:03;;;;;;;7.88;2.30;;;;;;;-143.48;64.22;77314.19;5074060;28;20027;-37
2022/09/09 11:10:45;;;;;;;10.02;1.98;;;;;;;-143.48;65.53;77359.81;5073391;28;20047;-36
2022/09/09 11:13:18;;;;;;;6.57;2.38;;;;;;;-143.48;64.96;77369.72;5073932;28;20013;-36
2022/09/09 11:15:45;;;;;;;;;;;;;;;-143.48;66.71;77393.50;5074606;28;20500;-35
2022/09/09 11:18:17;;;;;;;8.57;1.90;;;;;;;-143.48;65.63;77369.72;5074276;28;19916;-37
2022/09/09 11:20:44;;;;;;;4.97;1.70;;;;;;;-143.48;67.06;77462.91;5073918;28;20051;-36
2022/09/09 11:23:23;;;;;;;6.45;2.15;;;;;;;-143.48;68.00;77472.81;5073982;28;20093;-36
2022/09/09 11:25:56;;;;;;;8.55;2.25;;;;;;;-143.48;68.27;77480.75;5073712;28;20470;-36
2022/09/09 11:28:40;;;;;;;7.90;2.45;;;;;;;-143.48;67.46;77460.94;5073162;28;20056;-36
2022/09/09 11:31:15;;;;;;;9.73;2.65;;;;;;;-143.48;67.86;77443.09;5072772;28;20024;-36
2022/09/09 11:34:21;;;;;;;10.32;2.40;;;;;;;-143.48;66.43;77447.03;5073770;28;20066;-35